createdAt,value
2019-03-12T00:00:49.156Z,1.16
2019-03-12T00:03:52.969Z,1.08
2019-03-12T00:06:56.772Z,1.04
2019-03-12T00:10:00.572Z,1.05
2019-03-12T00:13:04.472Z,1.02
2019-03-12T00:16:08.346Z,0.99
2019-03-12T00:19:12.149Z,1.00
2019-03-12T00:22:15.952Z,0.96
2019-03-12T00:25:19.757Z,0.91
2019-03-12T00:28:23.725Z,0.83
2019-03-12T00:31:27.619Z,0.82
2019-03-12T00:34:31.411Z,0.82
2019-03-12T00:37:35.322Z,0.84
2019-03-12T00:40:39.143Z,0.84
2019-03-12T00:43:42.963Z,0.81
2019-03-12T00:46:46.763Z,0.79
2019-03-12T00:49:50.651Z,0.78
2019-03-12T00:52:54.627Z,0.77
2019-03-12T00:55:58.506Z,0.77
2019-03-12T00:59:02.318Z,0.70
2019-03-12T01:02:15.918Z,0.54
2019-03-12T01:05:19.798Z,0.63
2019-03-12T01:08:23.640Z,0.67
2019-03-12T01:11:27.535Z,0.68
2019-03-12T01:14:31.350Z,0.65
2019-03-12T01:17:35.138Z,0.66
2019-03-12T01:20:38.963Z,0.67
2019-03-12T01:23:42.798Z,0.61
2019-03-12T01:26:46.664Z,0.63
2019-03-12T01:29:50.548Z,0.67
2019-03-12T01:32:54.366Z,0.70
2019-03-12T01:35:58.200Z,0.78
2019-03-12T01:39:02.002Z,0.78
2019-03-12T01:42:05.968Z,0.88
2019-03-12T01:45:11.320Z,0.90
2019-03-12T01:48:15.137Z,0.91
2019-03-12T01:51:18.965Z,0.92
2019-03-12T01:54:22.764Z,0.93
2019-03-12T01:57:26.592Z,0.93
2019-03-12T02:00:30.400Z,0.93
2019-03-12T02:03:34.309Z,0.98
2019-03-12T02:06:38.125Z,0.97
2019-03-12T02:09:42.049Z,1.09
2019-03-12T02:12:45.910Z,1.03
2019-03-12T02:15:49.732Z,1.04
2019-03-12T02:18:53.523Z,1.16
2019-03-12T02:21:57.415Z,1.26
2019-03-12T02:25:01.251Z,1.36
2019-03-12T02:28:05.784Z,1.42
2019-03-12T02:31:09.662Z,1.37
2019-03-12T02:34:13.619Z,1.37
2019-03-12T02:37:17.421Z,1.38
2019-03-12T02:40:21.327Z,1.37
2019-03-12T02:43:25.136Z,1.40
2019-03-12T02:46:28.967Z,1.37
2019-03-12T02:49:32.826Z,1.36
2019-03-12T02:52:36.645Z,1.35
2019-03-12T02:55:40.511Z,1.33
2019-03-12T02:58:44.297Z,1.31
2019-03-12T03:01:48.099Z,1.28
2019-03-12T03:04:54.220Z,1.24
2019-03-12T03:08:00.364Z,1.23
2019-03-12T03:11:04.271Z,1.19
2019-03-12T03:14:43.304Z,1.19
2019-03-12T03:17:47.202Z,1.15
2019-03-12T03:20:51.112Z,1.14
2019-03-12T03:23:54.905Z,1.17
2019-03-12T03:26:58.824Z,1.13
2019-03-12T03:30:02.718Z,1.10
2019-03-12T03:33:06.638Z,1.09
2019-03-12T03:36:10.479Z,1.10
2019-03-12T03:39:14.355Z,1.08
2019-03-12T03:42:18.522Z,1.08
2019-03-12T03:45:22.501Z,1.08
2019-03-12T03:48:26.321Z,1.10
2019-03-12T03:51:30.157Z,1.12
2019-03-12T03:54:33.968Z,1.11
2019-03-12T03:57:37.853Z,1.14
2019-03-12T04:00:41.745Z,1.16
2019-03-12T04:03:45.631Z,1.17
2019-03-12T04:06:49.451Z,1.19
2019-03-12T04:09:53.373Z,1.13
2019-03-12T04:12:57.274Z,1.13
2019-03-12T04:16:01.144Z,1.14
2019-03-12T04:19:05.018Z,1.15
2019-03-12T04:22:08.841Z,1.14
2019-03-12T04:25:13.042Z,1.16
2019-03-12T04:28:16.823Z,1.19
2019-03-12T04:31:20.631Z,1.20
2019-03-12T04:34:36.821Z,1.22
2019-03-12T04:37:40.666Z,1.22
2019-03-12T04:40:44.499Z,1.23
2019-03-12T04:43:48.320Z,1.27
2019-03-12T04:46:52.227Z,1.29
2019-03-12T04:49:56.042Z,1.28
2019-03-12T04:52:59.861Z,1.33
2019-03-12T04:56:03.672Z,1.34
2019-03-12T04:59:07.632Z,1.34
2019-03-12T05:02:11.458Z,1.34
2019-03-12T05:05:15.438Z,1.35
2019-03-12T05:08:19.336Z,1.37
2019-03-12T05:11:23.243Z,1.43
2019-03-12T05:14:31.627Z,1.41
2019-03-12T05:17:35.976Z,1.42
2019-03-12T05:20:39.781Z,1.44
2019-03-12T05:23:43.668Z,1.43
2019-03-12T05:26:47.468Z,1.40
2019-03-12T05:29:51.291Z,1.37
2019-03-12T05:32:55.096Z,1.35
2019-03-12T05:35:59.001Z,1.36
2019-03-12T05:39:03.741Z,1.39
2019-03-12T05:42:07.580Z,1.39
2019-03-12T05:45:11.900Z,1.41
2019-03-12T05:48:15.726Z,1.42
2019-03-12T05:51:19.516Z,1.43
2019-03-12T05:54:23.421Z,1.54
2019-03-12T05:57:27.217Z,1.57
2019-03-12T06:00:31.034Z,1.57
2019-03-12T06:03:34.825Z,1.62
2019-03-12T06:06:38.721Z,1.66
2019-03-12T06:09:42.560Z,1.71
2019-03-12T06:12:46.375Z,1.70
2019-03-12T06:15:53.118Z,1.72
2019-03-12T06:18:55.794Z,1.73
2019-03-12T06:21:59.682Z,1.73
2019-03-12T06:25:03.580Z,1.78
2019-03-12T06:28:07.385Z,1.82
2019-03-12T06:31:19.561Z,1.85
2019-03-12T06:34:31.194Z,1.96
2019-03-12T06:37:41.120Z,2.04
2019-03-12T06:41:03.041Z,2.10
2019-03-12T06:44:15.880Z,2.13
2019-03-12T06:47:53.820Z,2.18
2019-03-12T06:51:13.498Z,2.22
2019-03-12T06:54:36.326Z,2.32
2019-03-12T06:58:22.281Z,2.34
2019-03-12T07:01:43.632Z,2.41
2019-03-12T07:05:03.661Z,2.49
2019-03-12T07:08:38.618Z,2.48
2019-03-12T07:11:52.774Z,2.52
2019-03-12T07:15:15.562Z,2.58
2019-03-12T07:18:32.318Z,2.58
2019-03-12T07:21:58.609Z,2.60
2019-03-12T07:25:24.614Z,2.66
2019-03-12T07:28:50.196Z,2.72
2019-03-12T07:31:59.097Z,2.76
2019-03-12T07:35:27.894Z,2.81
2019-03-12T07:39:08.961Z,2.89
2019-03-12T07:42:30.418Z,2.97
2019-03-12T07:45:52.641Z,3.03
2019-03-12T07:49:08.749Z,3.06
2019-03-12T07:52:46.906Z,3.21
2019-03-12T07:56:24.791Z,3.34
2019-03-12T08:00:02.661Z,3.42
2019-03-12T08:03:30.252Z,3.51
2019-03-12T08:06:41.503Z,3.58
2019-03-12T08:09:55.970Z,3.73
2019-03-12T08:13:27.709Z,3.90
2019-03-12T08:17:02.553Z,3.94
2019-03-12T08:20:35.178Z,4.01
2019-03-12T08:24:13.899Z,4.00
2019-03-12T08:27:36.937Z,4.12
2019-03-12T08:30:45.648Z,4.10
2019-03-12T08:33:59.221Z,4.12
2019-03-12T08:37:25.051Z,4.19
2019-03-12T08:40:52.515Z,4.39
2019-03-12T08:44:08.184Z,4.30
2019-03-12T08:47:18.423Z,4.30
2019-03-12T08:50:34.013Z,4.41
2019-03-12T08:53:52.046Z,4.34
2019-03-12T08:57:14.851Z,4.37
2019-03-12T09:00:40.724Z,4.47
2019-03-12T09:04:01.130Z,4.42
2019-03-12T09:07:30.282Z,4.44
2019-03-12T09:10:43.663Z,4.49
2019-03-12T09:14:05.167Z,4.50
2019-03-12T09:17:18.755Z,4.59
2019-03-12T09:21:00.052Z,4.66
2019-03-12T09:24:31.629Z,4.68
2019-03-12T09:27:54.674Z,4.79
2019-03-12T09:31:10.543Z,4.78
2019-03-12T09:34:23.051Z,4.89
2019-03-12T09:37:40.254Z,4.95
2019-03-12T09:41:14.993Z,4.95
2019-03-12T09:44:37.818Z,5.04
2019-03-12T09:48:00.640Z,5.14
2019-03-12T09:51:09.334Z,5.12
2019-03-12T09:54:29.842Z,5.25
2019-03-12T09:57:53.593Z,5.31
2019-03-12T10:01:22.769Z,5.24
2019-03-12T10:04:44.238Z,5.32
2019-03-12T10:07:54.589Z,5.35
2019-03-12T10:11:04.728Z,5.51
2019-03-12T10:14:34.374Z,5.43
2019-03-12T10:17:56.196Z,5.30
2019-03-12T10:21:19.227Z,5.46
2019-03-12T10:24:54.160Z,5.40
2019-03-12T10:28:17.050Z,5.26
2019-03-12T10:31:55.346Z,5.26
2019-03-12T10:35:14.864Z,5.27
2019-03-12T10:39:02.375Z,5.23
2019-03-12T10:42:13.329Z,5.42
2019-03-12T10:45:22.061Z,5.17
2019-03-12T10:48:26.162Z,5.23
2019-03-12T10:51:30.254Z,5.15
2019-03-12T10:54:34.077Z,5.17
2019-03-12T10:57:38.012Z,5.05
2019-03-12T11:00:42.064Z,4.98
2019-03-12T11:03:45.957Z,5.00
2019-03-12T11:06:49.937Z,4.99
2019-03-12T11:09:53.783Z,5.05
2019-03-12T11:12:57.586Z,5.09
2019-03-12T11:16:01.418Z,4.93
2019-03-12T11:19:05.394Z,4.79
2019-03-12T11:22:09.361Z,4.93
2019-03-12T11:25:26.032Z,4.86
2019-03-12T11:28:18.995Z,4.90
2019-03-12T11:31:22.990Z,4.80
2019-03-12T11:34:26.884Z,4.84
2019-03-12T11:37:30.769Z,4.96
2019-03-12T11:40:34.647Z,4.93
2019-03-12T11:43:38.540Z,4.92
2019-03-12T11:46:45.743Z,4.81
2019-03-12T11:49:48.017Z,4.90
2019-03-12T11:52:55.483Z,4.84
2019-03-12T11:55:57.576Z,4.94
2019-03-12T11:59:01.469Z,4.95
2019-03-12T12:02:05.883Z,5.17
2019-03-12T12:05:09.898Z,5.04
2019-03-12T12:08:13.737Z,5.06
2019-03-12T12:11:17.701Z,5.07
2019-03-12T12:14:21.753Z,5.09
2019-03-12T12:17:25.578Z,5.09
2019-03-12T12:20:30.547Z,5.03
2019-03-12T12:23:34.567Z,5.07
2019-03-12T12:26:38.457Z,5.20
2019-03-12T12:29:42.255Z,5.07
2019-03-12T12:32:46.176Z,5.17
2019-03-12T12:35:49.977Z,5.09
2019-03-12T12:38:53.868Z,5.07
2019-03-12T12:41:57.769Z,5.05
2019-03-12T12:45:01.633Z,5.18
2019-03-12T12:48:05.552Z,5.21
2019-03-12T12:51:09.358Z,5.10
2019-03-12T12:54:13.160Z,5.10
2019-03-12T12:57:16.968Z,5.09
2019-03-12T13:00:21.436Z,5.24
2019-03-12T13:03:25.309Z,5.18
2019-03-12T13:06:29.183Z,5.10
2019-03-12T13:09:33.083Z,5.08
2019-03-12T13:12:36.975Z,5.12
2019-03-12T13:15:40.858Z,5.21
2019-03-12T13:18:44.729Z,5.19
2019-03-12T13:21:48.649Z,5.19
2019-03-12T13:24:52.454Z,5.15
2019-03-12T13:27:56.348Z,5.08
2019-03-12T13:31:00.212Z,5.10
2019-03-12T13:34:04.200Z,5.11
2019-03-12T13:37:08.086Z,5.16
2019-03-12T13:40:13.620Z,5.13
2019-03-12T13:43:17.513Z,5.22
2019-03-12T13:46:21.330Z,5.14
2019-03-12T13:49:25.136Z,5.16
2019-03-12T13:52:29.089Z,5.10
2019-03-12T13:55:33.353Z,5.15
2019-03-12T13:58:37.322Z,5.22
2019-03-12T14:01:41.238Z,5.15
2019-03-12T14:04:45.041Z,5.14
2019-03-12T14:07:49.008Z,5.14
2019-03-12T14:10:52.794Z,5.15
2019-03-12T14:13:56.668Z,5.21
2019-03-12T14:17:00.619Z,5.16
2019-03-12T14:20:28.021Z,5.24
2019-03-12T14:23:40.524Z,5.25
2019-03-12T14:26:44.312Z,5.39
2019-03-12T14:29:48.202Z,5.29
2019-03-12T14:32:52.052Z,5.45
2019-03-12T14:35:55.945Z,5.46
2019-03-12T14:38:59.917Z,5.50
2019-03-12T14:42:03.845Z,5.52
2019-03-12T14:45:11.855Z,5.48
2019-03-12T14:48:37.721Z,5.54
2019-03-12T14:51:56.849Z,5.59
2019-03-12T14:55:00.664Z,5.55
2019-03-12T14:58:04.571Z,5.62
2019-03-12T15:01:08.519Z,5.60
2019-03-12T15:04:14.861Z,5.60
2019-03-12T15:07:18.615Z,5.65
2019-03-12T15:10:22.559Z,5.74
2019-03-12T15:13:26.373Z,5.66
2019-03-12T15:16:30.200Z,5.70
2019-03-12T15:19:34.028Z,5.61
2019-03-12T15:22:37.866Z,5.72
2019-03-12T15:25:41.721Z,5.66
2019-03-12T15:28:45.535Z,5.52
2019-03-12T15:31:49.411Z,5.63
2019-03-12T15:34:53.277Z,5.73
2019-03-12T15:37:57.127Z,5.68
2019-03-12T15:41:00.940Z,5.61
2019-03-12T15:44:04.915Z,5.61
2019-03-12T15:47:09.008Z,5.55
2019-03-12T15:50:13.339Z,5.61
2019-03-12T15:53:17.314Z,5.61
2019-03-12T15:56:21.121Z,5.66
2019-03-12T15:59:24.951Z,5.63
2019-03-12T16:02:28.833Z,5.71
2019-03-12T16:05:32.649Z,5.81
2019-03-12T16:08:36.465Z,5.84
2019-03-12T16:11:40.279Z,5.80
2019-03-12T16:14:44.124Z,5.81
2019-03-12T16:17:48.011Z,5.87
2019-03-12T16:20:52.003Z,5.95
2019-03-12T16:23:55.798Z,5.89
2019-03-12T16:27:02.842Z,5.91
2019-03-12T16:30:06.564Z,5.90
2019-03-12T16:33:10.458Z,5.85
2019-03-12T16:36:14.373Z,5.81
2019-03-12T16:39:18.182Z,5.82
2019-03-12T16:42:34.301Z,5.77
2019-03-12T16:45:27.667Z,5.78
2019-03-12T16:48:31.448Z,5.86
2019-03-12T16:51:35.361Z,5.80
2019-03-12T16:54:39.191Z,5.78
2019-03-12T16:57:43.199Z,5.80
2019-03-12T17:00:47.057Z,5.71
2019-03-12T17:03:51.047Z,5.73
2019-03-12T17:06:54.958Z,5.74
2019-03-12T17:09:58.772Z,5.65
2019-03-12T17:13:02.585Z,5.63
2019-03-12T17:16:06.400Z,5.59
2019-03-12T17:19:10.219Z,5.64
2019-03-12T17:22:14.093Z,5.61
2019-03-12T17:25:18.005Z,5.65
2019-03-12T17:28:21.807Z,5.61
2019-03-12T17:31:25.613Z,5.64
2019-03-12T17:34:35.788Z,5.66
2019-03-12T17:37:34.962Z,5.52
2019-03-12T17:40:38.845Z,5.56
2019-03-12T17:43:42.656Z,5.64
2019-03-12T17:46:47.133Z,5.58
2019-03-12T17:49:50.910Z,5.53
2019-03-12T17:52:54.741Z,5.74
2019-03-12T17:55:58.551Z,5.74
2019-03-12T17:59:02.530Z,5.71
2019-03-12T18:02:06.590Z,5.75
2019-03-12T18:05:10.905Z,5.61
2019-03-12T18:08:14.717Z,5.60
2019-03-12T18:11:18.649Z,5.62
2019-03-12T18:14:22.456Z,5.70
2019-03-12T18:17:26.276Z,5.59
2019-03-12T18:20:30.099Z,5.62
2019-03-12T18:23:33.925Z,5.70
2019-03-12T18:26:37.736Z,5.67
2019-03-12T18:29:41.596Z,5.61
2019-03-12T18:32:45.538Z,5.64
2019-03-12T18:35:49.375Z,5.71
2019-03-12T18:38:53.252Z,5.84
2019-03-12T18:41:57.045Z,5.64
2019-03-12T18:45:00.830Z,5.64
2019-03-12T18:48:04.856Z,5.79
2019-03-12T18:51:08.635Z,5.75
2019-03-12T18:54:12.439Z,5.68
2019-03-12T18:57:16.252Z,5.83
2019-03-12T19:00:20.069Z,5.69
2019-03-12T19:03:23.868Z,5.66
2019-03-12T19:06:27.696Z,5.69
2019-03-12T19:09:31.507Z,5.65
2019-03-12T19:12:35.311Z,5.74
2019-03-12T19:15:39.260Z,5.70
2019-03-12T19:18:43.275Z,5.78
2019-03-12T19:21:47.169Z,5.79
2019-03-12T19:24:51.023Z,5.83
2019-03-12T19:27:59.850Z,5.80
2019-03-12T19:31:14.157Z,5.78
2019-03-12T19:34:24.713Z,5.72
2019-03-12T19:37:28.609Z,5.70
2019-03-12T19:40:32.998Z,5.71
2019-03-12T19:43:36.885Z,5.81
2019-03-12T19:46:40.854Z,5.75
2019-03-12T19:49:44.682Z,5.71
2019-03-12T19:52:48.622Z,5.78
2019-03-12T19:55:52.555Z,5.72
2019-03-12T19:58:56.431Z,5.56
2019-03-12T20:02:15.257Z,5.49
2019-03-12T20:05:09.443Z,5.64
2019-03-12T20:08:13.237Z,5.63
2019-03-12T20:11:54.639Z,5.54
2019-03-12T20:15:44.000Z,5.58
2019-03-12T20:19:56.251Z,5.47
2019-03-12T20:23:30.255Z,5.53
2019-03-12T20:27:05.173Z,5.43
2019-03-12T20:30:52.468Z,5.31
2019-03-12T20:34:40.355Z,5.29
2019-03-12T20:38:30.378Z,5.49
2019-03-12T20:42:29.824Z,5.49
2019-03-12T20:46:09.815Z,5.42
2019-03-12T20:49:47.829Z,5.39
2019-03-12T20:53:34.657Z,5.40
2019-03-12T20:57:25.909Z,5.41
2019-03-12T21:01:35.250Z,5.50
2019-03-12T21:05:29.161Z,5.38
2019-03-12T21:09:10.088Z,5.42
2019-03-12T21:13:10.415Z,5.38
2019-03-12T21:16:52.513Z,5.30
2019-03-12T21:20:23.213Z,5.43
2019-03-12T21:23:49.794Z,5.40
2019-03-12T21:27:24.850Z,5.45
2019-03-12T21:30:28.783Z,5.31
2019-03-12T21:33:32.567Z,5.32
2019-03-12T21:36:36.455Z,5.36
2019-03-12T21:39:54.064Z,5.28
2019-03-12T21:42:45.928Z,5.45
2019-03-12T21:45:49.894Z,5.38
2019-03-12T21:48:53.774Z,5.29
2019-03-12T21:51:57.571Z,5.42
2019-03-12T21:55:01.413Z,5.17
2019-03-12T21:58:05.341Z,5.21
2019-03-12T22:01:09.253Z,5.28
2019-03-12T22:04:13.076Z,5.20
2019-03-12T22:07:16.870Z,5.23
2019-03-12T22:10:20.746Z,5.21
2019-03-12T22:13:24.536Z,5.29
2019-03-12T22:16:28.345Z,5.27
2019-03-12T22:19:32.141Z,5.27
2019-03-12T22:23:00.345Z,5.25
2019-03-12T22:26:04.224Z,5.47
2019-03-12T22:29:08.028Z,5.26
2019-03-12T22:32:12.019Z,5.30
2019-03-12T22:35:15.830Z,5.30
2019-03-12T22:38:19.657Z,5.28
2019-03-12T22:41:23.435Z,5.28
2019-03-12T22:44:27.259Z,5.36
2019-03-12T22:47:31.116Z,5.33
2019-03-12T22:50:34.947Z,5.23
2019-03-12T22:53:38.801Z,5.22
2019-03-12T22:56:42.898Z,5.32
2019-03-12T22:59:46.697Z,5.34
2019-03-12T23:02:50.520Z,5.34
2019-03-12T23:05:54.468Z,5.36
2019-03-12T23:08:58.534Z,5.39
2019-03-12T23:12:02.505Z,5.46
2019-03-12T23:15:07.983Z,5.38
2019-03-12T23:18:11.946Z,5.38
2019-03-12T23:21:15.907Z,5.35
2019-03-12T23:24:19.714Z,5.39
2019-03-12T23:27:23.523Z,5.36
2019-03-12T23:30:28.895Z,5.48
2019-03-12T23:33:32.959Z,5.40
2019-03-12T23:36:36.878Z,5.46
2019-03-12T23:39:40.737Z,5.46
2019-03-12T23:42:44.784Z,5.34
2019-03-12T23:45:48.653Z,5.22
2019-03-12T23:48:52.449Z,5.14
2019-03-12T23:51:56.606Z,5.00
2019-03-12T23:55:00.471Z,5.03
2019-03-12T23:58:04.473Z,4.88
